MEA YGEI-YMAY

Flight info

Callsign MEA
Flight time N/A
Altitude 6500
Route YHOT YMBT
Aircraft PA24/L-SGD/C

Departure

Time N/A
Airport YGEI

Arrival

Time 2026-05-08 04:58
Airport Albury Airport (YMAY)
Time Latitude Longitude Altitude Speed Heading
2026-05-08 03:36 -36.38080 148.18123 1417 ft 0 kts 74°
2026-05-08 03:48 -36.38047 148.18129 1416 ft 9 kts 335°
2026-05-08 03:48 -36.37992 148.18057 1414 ft 12 kts 286°
2026-05-08 03:48 -36.37960 148.17975 1412 ft 9 kts 278°
2026-05-08 03:48 -36.37973 148.17928 1415 ft 5 kts 191°
2026-05-08 03:49 -36.38101 148.18002 1416 ft 57 kts 155°
2026-05-08 03:49 -36.38554 148.18269 1633 ft 74 kts 152°
2026-05-08 03:49 -36.39016 148.18559 2024 ft 75 kts 153°
2026-05-08 03:49 -36.39525 148.18747 2328 ft 82 kts 185°
2026-05-08 03:50 -36.40076 148.18499 2598 ft 86 kts 210°
2026-05-08 03:50 -36.40579 148.18125 2906 ft 85 kts 215°
2026-05-08 03:50 -36.41105 148.17753 3210 ft 88 kts 205°
2026-05-08 03:50 -36.41665 148.17432 3533 ft 89 kts 206°
2026-05-08 03:51 -36.42216 148.17103 3880 ft 87 kts 210°
2026-05-08 03:51 -36.42768 148.16751 4137 ft 89 kts 206°
2026-05-08 03:51 -36.43334 148.16434 4371 ft 95 kts 208°
2026-05-08 03:51 -36.43937 148.16023 4592 ft 102 kts 213°
2026-05-08 03:52 -36.44501 148.15552 4914 ft 95 kts 219°
2026-05-08 03:52 -36.44982 148.14972 5149 ft 97 kts 233°
2026-05-08 03:52 -36.45218 148.14184 5427 ft 100 kts 253°
2026-05-08 03:52 -36.45344 148.13321 5718 ft 102 kts 255°
2026-05-08 03:53 -36.45452 148.12466 6016 ft 100 kts 254°
2026-05-08 03:53 -36.45582 148.11625 6337 ft 97 kts 249°
2026-05-08 03:53 -36.45705 148.11099 6558 ft 95 kts 238°
2026-05-08 03:53 -36.46057 148.10339 6524 ft 110 kts 230°
2026-05-08 03:54 -36.46536 148.09544 6486 ft 116 kts 229°
2026-05-08 03:54 -36.47002 148.08705 6504 ft 120 kts 241°
2026-05-08 03:54 -36.47322 148.07725 6491 ft 126 kts 233°
2026-05-08 03:54 -36.47845 148.06861 6514 ft 124 kts 229°
2026-05-08 03:55 -36.48401 148.06009 6489 ft 130 kts 226°
2026-05-08 03:55 -36.48987 148.05153 6458 ft 131 kts 228°
2026-05-08 03:55 -36.49477 148.04213 6493 ft 130 kts 238°
2026-05-08 03:55 -36.49859 148.03176 6496 ft 136 kts 240°
2026-05-08 03:56 -36.50332 148.02168 6527 ft 134 kts 226°
2026-05-08 03:56 -36.50964 148.01344 6523 ft 128 kts 224°
2026-05-08 03:56 -36.51590 148.00555 6503 ft 129 kts 222°
2026-05-08 03:56 -36.52280 147.99819 6454 ft 133 kts 218°
2026-05-08 03:57 -36.52954 147.99045 6479 ft 130 kts 220°
2026-05-08 03:57 -36.53622 147.98313 6500 ft 127 kts 219°
2026-05-08 03:57 -36.54309 147.97603 6465 ft 131 kts 219°
2026-05-08 03:57 -36.54992 147.96861 6472 ft 127 kts 219°
2026-05-08 03:58 -36.55645 147.96125 6475 ft 128 kts 225°
2026-05-08 03:58 -36.56218 147.95285 6481 ft 128 kts 226°
2026-05-08 03:58 -36.56841 147.94505 6484 ft 127 kts 223°
2026-05-08 03:58 -36.57464 147.93718 6496 ft 129 kts 223°
2026-05-08 03:59 -36.58122 147.92953 6489 ft 131 kts 222°
2026-05-08 03:59 -36.58782 147.92166 6487 ft 130 kts 223°
2026-05-08 03:59 -36.59412 147.91370 6473 ft 129 kts 225°
2026-05-08 03:59 -36.60011 147.90569 6481 ft 127 kts 226°
2026-05-08 04:00 -36.60612 147.89735 6485 ft 128 kts 225°
2026-05-08 04:00 -36.61225 147.88944 6476 ft 128 kts 222°
2026-05-08 04:00 -36.61896 147.88215 6478 ft 128 kts 220°
2026-05-08 04:00 -36.62559 147.87471 6490 ft 128 kts 223°
2026-05-08 04:01 -36.63196 147.86697 6486 ft 128 kts 225°
2026-05-08 04:01 -36.63815 147.85891 6487 ft 129 kts 223°
2026-05-08 04:01 -36.64449 147.85080 6458 ft 133 kts 224°
2026-05-08 04:01 -36.65075 147.84226 6413 ft 133 kts 226°
2026-05-08 04:02 -36.65662 147.83365 6432 ft 128 kts 229°
2026-05-08 04:02 -36.66224 147.82511 6412 ft 126 kts 226°
2026-05-08 04:02 -36.66831 147.81727 6435 ft 127 kts 221°
2026-05-08 04:02 -36.67494 147.81017 6434 ft 123 kts 219°
2026-05-08 04:03 -36.68141 147.80326 6430 ft 122 kts 221°
2026-05-08 04:03 -36.69373 147.78799 6434 ft 126 kts 223°
2026-05-08 04:03 -36.69974 147.78030 6433 ft 125 kts 224°
2026-05-08 04:04 -36.70593 147.77255 6440 ft 127 kts 223°
2026-05-08 04:04 -36.71216 147.76469 6439 ft 128 kts 223°
2026-05-08 04:04 -36.71825 147.75671 6436 ft 126 kts 225°
2026-05-08 04:04 -36.72413 147.74848 6433 ft 127 kts 225°
2026-05-08 04:05 -36.73005 147.74026 6433 ft 127 kts 224°
2026-05-08 04:05 -36.73627 147.73243 6438 ft 127 kts 222°
2026-05-08 04:05 -36.74258 147.72469 6435 ft 127 kts 222°
2026-05-08 04:05 -36.74892 147.71702 6427 ft 127 kts 221°
2026-05-08 04:06 -36.75531 147.70936 6427 ft 128 kts 222°
2026-05-08 04:06 -36.76176 147.70167 6426 ft 128 kts 221°
2026-05-08 04:06 -36.76810 147.69406 6420 ft 126 kts 223°
2026-05-08 04:06 -36.77410 147.68609 6432 ft 125 kts 224°
2026-05-08 04:07 -36.78004 147.67787 6433 ft 129 kts 224°
2026-05-08 04:07 -36.78616 147.66980 6436 ft 130 kts 224°
2026-05-08 04:07 -36.79244 147.66168 6429 ft 130 kts 224°
2026-05-08 04:07 -36.79852 147.65359 6420 ft 127 kts 224°
2026-05-08 04:08 -36.80473 147.64575 6426 ft 128 kts 224°
2026-05-08 04:08 -36.81106 147.63776 6427 ft 130 kts 223°
2026-05-08 04:08 -36.81720 147.62946 6431 ft 130 kts 225°
2026-05-08 04:08 -36.82353 147.62120 6433 ft 132 kts 223°
2026-05-08 04:09 -36.83004 147.61319 6428 ft 131 kts 223°
2026-05-08 04:09 -36.83661 147.60542 6425 ft 129 kts 221°
2026-05-08 04:09 -36.84307 147.59772 6425 ft 129 kts 220°
2026-05-08 04:09 -36.84950 147.58992 6427 ft 129 kts 224°
2026-05-08 04:10 -36.85585 147.58202 6418 ft 128 kts 223°
2026-05-08 04:10 -36.86202 147.57410 6426 ft 128 kts 224°
2026-05-08 04:10 -36.86812 147.56609 6428 ft 128 kts 224°
2026-05-08 04:10 -36.87418 147.55819 6423 ft 126 kts 226°
2026-05-08 04:11 -36.88008 147.54995 6432 ft 128 kts 226°
2026-05-08 04:11 -36.88625 147.54158 6431 ft 133 kts 225°
2026-05-08 04:11 -36.89235 147.53316 6428 ft 129 kts 224°
2026-05-08 04:11 -36.89875 147.52522 6420 ft 131 kts 222°
2026-05-08 04:12 -36.90542 147.51753 6434 ft 130 kts 222°
2026-05-08 04:12 -36.91204 147.50968 6429 ft 131 kts 223°
2026-05-08 04:12 -36.91853 147.50166 6424 ft 132 kts 224°
2026-05-08 04:12 -36.92476 147.49316 6431 ft 133 kts 228°
2026-05-08 04:13 -36.93049 147.48418 6430 ft 132 kts 229°
2026-05-08 04:13 -36.93632 147.47523 6424 ft 133 kts 229°
2026-05-08 04:13 -36.94228 147.46644 6422 ft 132 kts 226°
2026-05-08 04:13 -36.94858 147.45814 6420 ft 131 kts 223°
2026-05-08 04:14 -36.95555 147.45084 6417 ft 130 kts 220°
2026-05-08 04:14 -36.96244 147.44365 6425 ft 129 kts 221°
2026-05-08 04:14 -36.96914 147.43615 6424 ft 128 kts 221°
2026-05-08 04:14 -36.97574 147.42844 6421 ft 131 kts 223°
2026-05-08 04:15 -36.98223 147.42037 6429 ft 133 kts 225°
2026-05-08 04:15 -36.98863 147.41189 6430 ft 133 kts 225°
2026-05-08 04:15 -36.99495 147.40348 6424 ft 132 kts 225°
2026-05-08 04:15 -37.00104 147.39519 6411 ft 130 kts 226°
2026-05-08 04:16 -37.00712 147.38697 6415 ft 128 kts 227°
2026-05-08 04:16 -37.01320 147.37866 6427 ft 130 kts 225°
2026-05-08 04:16 -37.01930 147.37034 6430 ft 129 kts 226°
2026-05-08 04:16 -37.02513 147.36191 6451 ft 128 kts 230°
2026-05-08 04:17 -37.03049 147.35269 6394 ft 135 kts 233°
2026-05-08 04:17 -37.03551 147.34256 6347 ft 135 kts 249°
2026-05-08 04:17 -37.03334 147.33148 6395 ft 138 kts 296°
2026-05-08 04:17 -37.02656 147.32249 6357 ft 150 kts 314°
2026-05-08 04:18 -37.01809 147.31440 6371 ft 154 kts 314°
2026-05-08 04:18 -37.00862 147.30803 6393 ft 160 kts 335°
2026-05-08 04:18 -36.99724 147.30599 6423 ft 167 kts 348°
2026-05-08 04:18 -36.98570 147.30293 6449 ft 169 kts 330°
2026-05-08 04:19 -36.97494 147.29750 6433 ft 166 kts 329°
2026-05-08 04:19 -36.96427 147.29191 6392 ft 166 kts 329°
2026-05-08 04:19 -36.95402 147.28542 6371 ft 164 kts 325°
2026-05-08 04:19 -36.94345 147.27989 6402 ft 165 kts 328°
2026-05-08 04:20 -36.93322 147.27391 6436 ft 166 kts 329°
2026-05-08 04:20 -36.92298 147.26724 6502 ft 165 kts 315°
2026-05-08 04:20 -36.91399 147.25951 6590 ft 156 kts 318°
2026-05-08 04:20 -36.90506 147.25189 6677 ft 155 kts 317°
2026-05-08 04:21 -36.89596 147.24443 6716 ft 156 kts 323°
2026-05-08 04:21 -36.88610 147.23820 6737 ft 157 kts 325°
2026-05-08 04:21 -36.87615 147.23248 6770 ft 160 kts 329°
2026-05-08 04:21 -36.86564 147.22731 6796 ft 161 kts 337°
2026-05-08 04:22 -36.85467 147.22381 6811 ft 165 kts 344°
2026-05-08 04:22 -36.84300 147.22329 6626 ft 171 kts 355°
2026-05-08 04:22 -36.83125 147.22335 6506 ft 164 kts 357°
2026-05-08 04:22 -36.81991 147.22340 6133 ft 162 kts 355°
2026-05-08 04:23 -36.80865 147.22286 5698 ft 161 kts 352°
2026-05-08 04:23 -36.79764 147.22134 5325 ft 157 kts 347°
2026-05-08 04:23 -36.78721 147.21927 4962 ft 151 kts 348°
2026-05-08 04:23 -36.77689 147.21646 4562 ft 150 kts 341°
2026-05-08 04:24 -36.76706 147.21338 4208 ft 141 kts 337°
2026-05-08 04:24 -36.75847 147.20853 3763 ft 128 kts 325°
2026-05-08 04:24 -36.75132 147.20250 3321 ft 123 kts 322°
2026-05-08 04:24 -36.74399 147.19640 2921 ft 127 kts 327°
2026-05-08 04:25 -36.73673 147.19131 2688 ft 119 kts 334°
2026-05-08 04:25 -36.72948 147.18687 2532 ft 104 kts 331°
2026-05-08 04:25 -36.72355 147.18274 2333 ft 89 kts 325°
2026-05-08 04:25 -36.71862 147.17881 2244 ft 81 kts 325°
2026-05-08 04:26 -36.71390 147.17521 2149 ft 79 kts 326°
2026-05-08 04:26 -36.70918 147.17148 2077 ft 83 kts 324°
2026-05-08 04:26 -36.70733 147.16521 1943 ft 83 kts 250°
2026-05-08 04:26 -36.71085 147.16001 1704 ft 77 kts 215°
2026-05-08 04:27 -36.71575 147.15926 1555 ft 73 kts 171°
2026-05-08 04:27 -36.72083 147.16175 1375 ft 86 kts 156°
2026-05-08 04:27 -36.72610 147.16530 1200 ft 82 kts 156°
2026-05-08 04:27 -36.73039 147.16816 1155 ft 54 kts 149°
2026-05-08 04:28 -36.73390 147.17048 1213 ft 70 kts 152°
2026-05-08 04:28 -36.73838 147.17397 1473 ft 81 kts 136°
2026-05-08 04:28 -36.73888 147.18047 1846 ft 85 kts 55°
2026-05-08 04:28 -36.73320 147.18341 2008 ft 99 kts 347°
2026-05-08 04:29 -36.72690 147.17989 2092 ft 98 kts 326°
2026-05-08 04:29 -36.72147 147.17564 2093 ft 90 kts 325°
2026-05-08 04:29 -36.71629 147.17138 2033 ft 87 kts 322°
2026-05-08 04:29 -36.71142 147.16709 1992 ft 87 kts 301°
2026-05-08 04:30 -36.71251 147.16076 1826 ft 77 kts 221°
2026-05-08 04:30 -36.71756 147.15978 1542 ft 79 kts 169°
2026-05-08 04:30 -36.72255 147.16286 1324 ft 83 kts 156°
2026-05-08 04:30 -36.72720 147.16605 1169 ft 67 kts 156°
2026-05-08 04:31 -36.73037 147.16814 1155 ft 39 kts 152°
2026-05-08 04:31 -36.73198 147.16920 1157 ft 17 kts 145°
2026-05-08 04:31 -36.73284 147.16979 1155 ft 10 kts 152°
2026-05-08 04:31 -36.73327 147.16962 1153 ft 5 kts 188°
2026-05-08 04:32 -36.73332 147.16974 1153 ft 0 kts 49°
2026-05-08 04:38 -36.73332 147.16991 1160 ft 6 kts 139°
2026-05-08 04:38 -36.73383 147.17025 1158 ft 9 kts 150°
2026-05-08 04:38 -36.73419 147.17048 1160 ft 8 kts 165°
2026-05-08 04:38 -36.73442 147.17081 1160 ft 6 kts
2026-05-08 04:39 -36.73350 147.17024 1159 ft 52 kts 332°
2026-05-08 04:39 -36.72734 147.16608 1384 ft 88 kts 328°
2026-05-08 04:39 -36.72129 147.16354 1739 ft 95 kts 336°
2026-05-08 04:39 -36.71700 147.16180 1980 ft 95 kts 334°
2026-05-08 04:40 -36.70900 147.15765 2421 ft 97 kts 328°
2026-05-08 04:40 -36.70289 147.15444 2749 ft 96 kts 342°
2026-05-08 04:40 -36.69835 147.15355 2965 ft 99 kts 354°
2026-05-08 04:40 -36.69133 147.15338 3317 ft 103 kts 351°
2026-05-08 04:41 -36.68394 147.15285 3649 ft 108 kts 353°
2026-05-08 04:41 -36.67637 147.15276 3963 ft 110 kts 355°
2026-05-08 04:41 -36.66876 147.15279 4286 ft 111 kts 351°
2026-05-08 04:41 -36.66095 147.15259 4619 ft 113 kts 350°
2026-05-08 04:42 -36.65310 147.15170 4979 ft 114 kts 344°
2026-05-08 04:42 -36.64508 147.14957 5251 ft 118 kts 341°
2026-05-08 04:42 -36.63701 147.14833 5651 ft 117 kts 350°
2026-05-08 04:42 -36.62864 147.14718 5949 ft 124 kts 342°
2026-05-08 04:43 -36.62048 147.14415 6346 ft 121 kts 332°
2026-05-08 04:43 -36.61225 147.14086 6578 ft 134 kts 332°
2026-05-08 04:43 -36.60298 147.13596 6545 ft 153 kts 327°
2026-05-08 04:43 -36.59313 147.12987 6501 ft 162 kts 324°
2026-05-08 04:44 -36.58295 147.12345 6464 ft 166 kts 328°
2026-05-08 04:44 -36.57238 147.11749 6475 ft 165 kts 329°
2026-05-08 04:44 -36.56182 147.11247 6475 ft 167 kts 335°
2026-05-08 04:44 -36.55059 147.10812 6488 ft 170 kts 337°
2026-05-08 04:45 -36.53925 147.10411 6513 ft 168 kts 342°
2026-05-08 04:45 -36.52757 147.10215 6506 ft 172 kts 348°
2026-05-08 04:45 -36.51569 147.09974 6475 ft 173 kts 345°
2026-05-08 04:45 -36.50391 147.09727 6524 ft 170 kts 344°
2026-05-08 04:46 -36.49222 147.09421 6506 ft 172 kts 339°
2026-05-08 04:46 -36.48083 147.09006 6530 ft 170 kts 336°
2026-05-08 04:46 -36.46930 147.08654 6487 ft 172 kts 346°
2026-05-08 04:46 -36.45715 147.08554 6471 ft 175 kts 345°
2026-05-08 04:47 -36.44564 147.08157 6526 ft 168 kts 336°
2026-05-08 04:47 -36.43449 147.07744 6535 ft 167 kts 335°
2026-05-08 04:47 -36.42336 147.07313 6536 ft 168 kts 337°
2026-05-08 04:47 -36.41230 147.06887 6546 ft 168 kts 334°
2026-05-08 04:48 -36.40139 147.06374 6543 ft 168 kts 332°
2026-05-08 04:48 -36.39038 147.05880 6541 ft 169 kts 334°
2026-05-08 04:48 -36.37916 147.05449 6535 ft 169 kts 336°
2026-05-08 04:48 -36.36786 147.05063 6537 ft 169 kts 339°
2026-05-08 04:49 -36.35640 147.04730 6537 ft 169 kts 340°
2026-05-08 04:49 -36.34488 147.04414 6539 ft 170 kts 341°
2026-05-08 04:49 -36.33335 147.04088 6535 ft 170 kts 340°
2026-05-08 04:49 -36.32183 147.03746 6517 ft 171 kts 339°
2026-05-08 04:50 -36.31014 147.03376 6434 ft 173 kts 339°
2026-05-08 04:50 -36.29853 147.03006 6449 ft 171 kts 340°
2026-05-08 04:50 -36.28703 147.02647 6443 ft 169 kts 339°
2026-05-08 04:50 -36.27576 147.02300 6438 ft 164 kts 339°
2026-05-08 04:51 -36.26494 147.01967 6439 ft 161 kts 338°
2026-05-08 04:51 -36.25416 147.01625 6444 ft 159 kts 338°
2026-05-08 04:51 -36.24352 147.01283 6447 ft 157 kts 338°
2026-05-08 04:51 -36.23293 147.00946 6445 ft 157 kts 338°
2026-05-08 04:52 -36.22239 147.00615 6448 ft 156 kts 338°
2026-05-08 04:52 -36.21188 147.00283 6450 ft 156 kts 338°
2026-05-08 04:52 -36.20133 146.99955 6426 ft 157 kts 338°
2026-05-08 04:52 -36.19064 146.99638 6071 ft 155 kts 339°
2026-05-08 04:53 -36.18046 146.99341 5537 ft 149 kts 339°
2026-05-08 04:53 -36.17029 146.99076 5060 ft 154 kts 340°
2026-05-08 04:53 -36.15966 146.98796 4559 ft 156 kts 340°
2026-05-08 04:53 -36.14932 146.98498 4206 ft 150 kts 338°
2026-05-08 04:54 -36.13924 146.98181 3806 ft 148 kts 337°
2026-05-08 04:54 -36.12950 146.97837 3431 ft 143 kts 334°
2026-05-08 04:54 -36.12000 146.97517 3117 ft 140 kts 337°
2026-05-08 04:54 -36.11061 146.97234 2796 ft 138 kts 336°
2026-05-08 04:55 -36.10143 146.96942 2344 ft 140 kts 335°
2026-05-08 04:55 -36.09208 146.96629 1994 ft 139 kts 341°
2026-05-08 04:55 -36.08270 146.96443 1692 ft 133 kts 343°
2026-05-08 04:55 -36.07409 146.96211 1521 ft 121 kts 332°
2026-05-08 04:56 -36.06611 146.95930 1508 ft 119 kts 345°
2026-05-08 04:56 -36.05834 146.96053 1481 ft 112 kts 21°
2026-05-08 04:56 -36.05364 146.96685 1445 ft 90 kts 61°
2026-05-08 04:56 -36.05218 146.97433 1517 ft 91 kts 92°
2026-05-08 04:57 -36.05119 146.98222 1494 ft 96 kts 86°
2026-05-08 04:57 -36.05432 146.98844 1485 ft 86 kts 172°
2026-05-08 04:57 -36.05961 146.98947 1226 ft 74 kts 197°
2026-05-08 04:57 -36.06363 146.98689 1054 ft 61 kts 248°
2026-05-08 04:58 -36.06407 146.98155 858 ft 63 kts 281°
2026-05-08 04:58 -36.06454 146.97630 676 ft 65 kts 255°
2026-05-08 04:58 -36.06532 146.97074 593 ft 66 kts 257°
2026-05-08 04:58 -36.06598 146.96561 546 ft 48 kts 262°
2026-05-08 04:59 -36.06635 146.96269 548 ft 29 kts 263°
2026-05-08 04:59 -36.06662 146.96102 550 ft 9 kts 226°
2026-05-08 04:59 -36.06729 146.96093 550 ft 10 kts 172°
2026-05-08 04:59 -36.06774 146.96024 549 ft 17 kts 261°
2026-05-08 05:00 -36.06793 146.95867 550 ft 19 kts 259°
2026-05-08 05:00 -36.06813 146.95707 549 ft 19 kts 262°
2026-05-08 05:00 -36.06833 146.95549 550 ft 17 kts 263°
2026-05-08 05:00 -36.06844 146.95427 550 ft 13 kts 261°
2026-05-08 05:01 -36.06856 146.95334 551 ft 9 kts 263°
2026-05-08 05:01 -36.06887 146.95285 552 ft 11 kts 181°
2026-05-08 05:01 -36.06995 146.95283 550 ft 14 kts 180°
2026-05-08 05:01 -36.07058 146.95249 550 ft 7 kts 243°
2026-05-08 05:02 -36.07064 146.95227 550 ft 0 kts 355°